Time;durP1;ratioP1;P1;durP2;ratioP2;P2;SDS_P1;SDS_P2;PMS_P1;PMS_P2;Temp;Humidity;BMP_temperature;BMP_pressure;BME280_temperature;BME280_humidity;BME280_pressure;Samples;Min_cycle;Max_cycle;Signal;HPM_P1;HPM_P2
2023/12/14 00:00:13;;;;;;;;;0.50;0.50;;;;;;;;5065168;28;9940;-79
2023/12/14 00:02:40;;;;;;;;;1.00;1.00;;;;;;;;5067449;28;9885;-79
2023/12/14 00:05:07;;;;;;;;;1.00;1.00;;;;;;;;5072570;28;10050;-81
2023/12/14 00:07:35;;;;;;;;;1.00;1.00;;;;;;;;5072636;28;10017;-80
2023/12/14 00:10:04;;;;;;;;;0.00;0.00;;;;;;;;5072935;28;10792;-80
2023/12/14 00:12:32;;;;;;;;;1.00;1.00;;;;;;;;5076067;28;9934;-80
2023/12/14 00:15:03;;;;;;;;;1.00;1.00;;;;;;;;5075044;28;10122;-81
2023/12/14 00:17:30;;;;;;;;;1.50;1.50;;;;;;;;5071908;28;9926;-79
2023/12/14 00:19:58;;;;;;;;;1.00;1.00;;;;;;;;5071066;28;10965;-79
2023/12/14 00:22:25;;;;;;;;;2.00;0.75;;;;;;;;5062840;28;10032;-80
2023/12/14 00:24:52;;;;;;;;;0.00;0.00;;;;;;;;5065282;28;10008;-80
2023/12/14 00:27:23;;;;;;;;;1.00;0.00;;;;;;;;5069936;28;10806;-81
2023/12/14 00:29:50;;;;;;;;;1.00;1.00;;;;;;;;5070532;28;10018;-80
2023/12/14 00:32:18;;;;;;;;;2.00;2.00;;;;;;;;5069535;28;10010;-81
2023/12/14 00:34:45;;;;;;;;;0.00;0.00;;;;;;;;5069381;28;10108;-80
2023/12/14 00:37:12;;;;;;;;;2.00;0.75;;;;;;;;5061819;28;10010;-81
2023/12/14 00:39:40;;;;;;;;;1.00;1.00;;;;;;;;5052395;28;10078;-81
2023/12/14 00:42:07;;;;;;;;;1.50;1.50;;;;;;;;5052240;28;10166;-81
2023/12/14 00:44:36;;;;;;;;;3.00;1.75;;;;;;;;5070269;28;10046;-80
2023/12/14 00:47:06;;;;;;;;;1.75;1.00;;;;;;;;5067468;28;10204;-80
2023/12/14 00:49:33;;;;;;;;;1.00;1.00;;;;;;;;5061717;28;10135;-81
2023/12/14 00:52:01;;;;;;;;;3.50;1.00;;;;;;;;5066940;28;10915;-81
2023/12/14 00:54:28;;;;;;;;;1.75;1.75;;;;;;;;5070262;28;10944;-80
2023/12/14 00:56:55;;;;;;;;;0.75;0.75;;;;;;;;5070468;28;10050;-80
2023/12/14 00:59:22;;;;;;;;;0.00;0.00;;;;;;;;5071775;28;10096;-81
2023/12/14 01:01:51;;;;;;;;;1.00;1.00;;;;;;;;5070868;28;10028;-81
2023/12/14 01:04:18;;;;;;;;;1.50;1.50;;;;;;;;5071405;28;10084;-81
2023/12/14 01:06:45;;;;;;;;;2.25;2.25;;;;;;;;5071116;28;10561;-80
2023/12/14 01:09:13;;;;;;;;;2.75;2.75;;;;;;;;5069686;28;10005;-81
2023/12/14 01:11:40;;;;;;;;;3.50;3.50;;;;;;;;5069765;28;10026;-81
2023/12/14 01:14:07;;;;;;;;;2.50;2.50;;;;;;;;5069744;28;10111;-81
2023/12/14 01:16:37;;;;;;;;;5.00;4.00;;;;;;;;5069810;28;10079;-81
2023/12/14 01:19:07;;;;;;;;;3.50;2.00;;;;;;;;5070488;28;10312;-81
2023/12/14 01:21:34;;;;;;;;;2.50;2.50;;;;;;;;5067710;28;10119;-82
2023/12/14 01:24:02;;;;;;;;;3.00;3.00;;;;;;;;5066922;28;10089;-81
2023/12/14 01:26:29;;;;;;;;;3.50;3.50;;;;;;;;5060402;28;10096;-81
2023/12/14 01:28:56;;;;;;;;;3.50;3.50;;;;;;;;5069549;28;10903;-80
2023/12/14 01:31:24;;;;;;;;;3.25;3.25;;;;;;;;5069332;28;9972;-81
2023/12/14 01:33:51;;;;;;;;;3.25;3.25;;;;;;;;5069570;28;10070;-80
2023/12/14 01:36:23;;;;;;;;;4.25;4.25;;;;;;;;5068844;28;10154;-80
2023/12/14 01:38:50;;;;;;;;;4.25;3.25;;;;;;;;5072931;28;10249;-80
2023/12/14 01:41:18;;;;;;;;;4.25;3.25;;;;;;;;5073609;28;10397;-80
2023/12/14 01:43:48;;;;;;;;;4.25;4.25;;;;;;;;5072264;28;10262;-80
2023/12/14 01:46:16;;;;;;;;;4.00;4.00;;;;;;;;5060360;28;10274;-80
2023/12/14 01:48:43;;;;;;;;;9.00;7.50;;;;;;;;5071913;28;10306;-81
2023/12/14 01:51:10;;;;;;;;;10.25;7.00;;;;;;;;5062020;28;10257;-80
2023/12/14 01:53:40;;;;;;;;;6.50;5.25;;;;;;;;5066696;28;10273;-80
2023/12/14 01:56:08;;;;;;;;;6.00;6.00;;;;;;;;5071344;28;10690;-81
2023/12/14 01:58:36;;;;;;;;;7.00;6.25;;;;;;;;5070571;28;10365;-80
2023/12/14 02:01:09;;;;;;;;;8.00;5.25;;;;;;;;5070452;28;10123;-80
2023/12/14 02:03:36;;;;;;;;;6.75;6.75;;;;;;;;5072180;28;10293;-79
2023/12/14 02:06:04;;;;;;;;;8.50;5.75;;;;;;;;5054008;28;11237;-80
2023/12/14 02:08:32;;;;;;;;;8.25;8.25;;;;;;;;5069013;28;10282;-81
2023/12/14 02:11:00;;;;;;;;;6.75;6.75;;;;;;;;5061443;28;10261;-81
2023/12/14 02:13:27;;;;;;;;;5.50;5.50;;;;;;;;5068123;28;10211;-81
2023/12/14 02:15:55;;;;;;;;;6.75;4.25;;;;;;;;5059536;28;10136;-81
2023/12/14 02:18:22;;;;;;;;;10.25;6.50;;;;;;;;5062782;28;10247;-79
2023/12/14 02:20:49;;;;;;;;;3.00;3.00;;;;;;;;5062909;28;10314;-80
2023/12/14 02:23:18;;;;;;;;;7.50;5.25;;;;;;;;5060938;28;10119;-80
2023/12/14 02:25:45;;;;;;;;;4.00;4.00;;;;;;;;5062795;28;10199;-81
2023/12/14 02:28:15;;;;;;;;;5.25;3.25;;;;;;;;5056262;28;10174;-80
2023/12/14 02:30:42;;;;;;;;;4.25;4.25;;;;;;;;5073916;28;10029;-78
2023/12/14 02:33:10;;;;;;;;;4.75;4.75;;;;;;;;5072839;28;10280;-80
2023/12/14 02:35:40;;;;;;;;;4.25;4.25;;;;;;;;5068691;28;10092;-80
2023/12/14 02:38:07;;;;;;;;;4.00;3.00;;;;;;;;5068735;28;10149;-81
2023/12/14 02:40:39;;;;;;;;;6.25;6.25;;;;;;;;5067496;28;10011;-79
2023/12/14 02:43:06;;;;;;;;;3.00;3.00;;;;;;;;5068167;28;10101;-80
2023/12/14 02:45:33;;;;;;;;;3.50;3.50;;;;;;;;5066623;28;10278;-79
2023/12/14 02:48:00;;;;;;;;;4.75;4.50;;;;;;;;5067750;28;10096;-79
2023/12/14 02:50:28;;;;;;;;;5.25;5.25;;;;;;;;5068052;28;11124;-81
2023/12/14 02:52:55;;;;;;;;;3.75;3.00;;;;;;;;5066541;28;10189;-80
2023/12/14 02:55:22;;;;;;;;;3.75;3.75;;;;;;;;5061295;28;10271;-80
2023/12/14 02:57:51;;;;;;;;;7.25;4.00;;;;;;;;5055048;28;10174;-81
2023/12/14 03:00:18;;;;;;;;;5.00;5.00;;;;;;;;5060349;28;10182;-80
2023/12/14 03:02:46;;;;;;;;;3.00;3.00;;;;;;;;5072253;28;10088;-81
2023/12/14 03:05:15;;;;;;;;;5.50;5.00;;;;;;;;5056619;28;10282;-81
2023/12/14 03:07:42;;;;;;;;;7.25;5.25;;;;;;;;5062686;28;10100;-81
2023/12/14 03:10:10;;;;;;;;;8.25;6.25;;;;;;;;5068520;28;10265;-81
2023/12/14 03:12:37;;;;;;;;;3.50;3.50;;;;;;;;5069552;28;10241;-81
2023/12/14 03:15:09;;;;;;;;;8.75;6.50;;;;;;;;5068201;28;10188;-81
2023/12/14 03:17:37;;;;;;;;;2.00;2.00;;;;;;;;5072357;28;10352;-80
2023/12/14 03:20:10;;;;;;;;;8.00;8.00;;;;;;;;5064076;28;10316;-80
2023/12/14 03:22:38;;;;;;;;;9.00;6.25;;;;;;;;5068266;28;10249;-80
2023/12/14 03:25:06;;;;;;;;;5.50;5.00;;;;;;;;5073556;28;10254;-81
2023/12/14 03:27:33;;;;;;;;;5.25;5.25;;;;;;;;5068187;28;10250;-80
2023/12/14 03:30:00;;;;;;;;;2.00;1.75;;;;;;;;5072837;28;10156;-80
2023/12/14 03:32:31;;;;;;;;;7.75;6.25;;;;;;;;5065694;28;10802;-80
2023/12/14 03:35:00;;;;;;;;;5.00;3.75;;;;;;;;5071154;28;10216;-80
2023/12/14 03:37:28;;;;;;;;;6.25;4.25;;;;;;;;5074435;28;10319;-80
2023/12/14 03:39:55;;;;;;;;;9.50;7.75;;;;;;;;5075709;28;10318;-80
2023/12/14 03:42:22;;;;;;;;;4.00;4.00;;;;;;;;5072009;28;10171;-79
2023/12/14 03:44:49;;;;;;;;;5.00;5.00;;;;;;;;5067569;28;10237;-79
2023/12/14 03:47:17;;;;;;;;;5.00;5.00;;;;;;;;5057864;28;10264;-80
2023/12/14 03:49:46;;;;;;;;;6.50;6.50;;;;;;;;5071462;28;10094;-81
2023/12/14 03:52:13;;;;;;;;;6.75;6.25;;;;;;;;5066830;28;10200;-80
2023/12/14 03:54:40;;;;;;;;;7.25;5.75;;;;;;;;5075519;28;10139;-79
2023/12/14 03:57:07;;;;;;;;;8.50;7.75;;;;;;;;5065627;28;10291;-80
2023/12/14 03:59:34;;;;;;;;;5.00;5.00;;;;;;;;5071553;28;10277;-79
2023/12/14 04:02:02;;;;;;;;;7.75;5.25;;;;;;;;5070719;28;10172;-80
2023/12/14 04:04:29;;;;;;;;;6.00;6.00;;;;;;;;5070926;28;10916;-81
2023/12/14 04:06:58;;;;;;;;;5.25;5.00;;;;;;;;5070215;28;10257;-80
2023/12/14 04:09:25;;;;;;;;;9.75;5.75;;;;;;;;5071018;28;10294;-81
2023/12/14 04:11:54;;;;;;;;;5.00;5.00;;;;;;;;5070688;28;10254;-80
2023/12/14 04:14:22;;;;;;;;;7.50;5.00;;;;;;;;5058520;28;10158;-79
2023/12/14 04:16:49;;;;;;;;;3.75;3.00;;;;;;;;5054268;28;10099;-80
2023/12/14 04:19:16;;;;;;;;;5.50;5.50;;;;;;;;5060057;28;10233;-80
2023/12/14 04:21:43;;;;;;;;;8.00;5.50;;;;;;;;5064142;28;10247;-80
2023/12/14 04:24:13;;;;;;;;;9.00;5.00;;;;;;;;5070562;28;10199;-80
2023/12/14 04:26:40;;;;;;;;;7.75;5.50;;;;;;;;5068797;28;10254;-80
2023/12/14 04:29:10;;;;;;;;;5.50;5.50;;;;;;;;5061330;28;10174;-79
2023/12/14 04:31:40;;;;;;;;;9.25;4.75;;;;;;;;5070266;28;10117;-80
2023/12/14 04:34:11;;;;;;;;;5.00;5.00;;;;;;;;5071006;28;10177;-79
2023/12/14 04:36:39;;;;;;;;;8.75;5.75;;;;;;;;5069271;28;10068;-79
2023/12/14 04:39:08;;;;;;;;;7.75;5.00;;;;;;;;5072048;28;10293;-79
2023/12/14 04:41:37;;;;;;;;;8.00;4.75;;;;;;;;5071992;28;10210;-80
2023/12/14 04:44:05;;;;;;;;;4.75;4.75;;;;;;;;5073552;28;10053;-80
2023/12/14 04:46:32;;;;;;;;;8.00;7.75;;;;;;;;5071651;28;10074;-79
2023/12/14 04:49:01;;;;;;;;;5.00;5.00;;;;;;;;5069684;28;10121;-79
2023/12/14 04:51:29;;;;;;;;;4.00;4.00;;;;;;;;5069445;28;10231;-79
2023/12/14 04:53:56;;;;;;;;;5.75;5.75;;;;;;;;5069909;28;10217;-79
2023/12/14 04:56:23;;;;;;;;;5.75;5.75;;;;;;;;5070436;28;10096;-79
2023/12/14 04:58:52;;;;;;;;;10.00;8.00;;;;;;;;5069911;28;10042;-80
2023/12/14 05:01:19;;;;;;;;;8.25;5.75;;;;;;;;5071104;28;10078;-79
2023/12/14 05:03:46;;;;;;;;;6.00;4.50;;;;;;;;5072469;28;10116;-76
2023/12/14 05:06:14;;;;;;;;;8.25;6.75;;;;;;;;5073940;28;10017;-79
2023/12/14 05:08:41;;;;;;;;;6.00;2.75;;;;;;;;5078763;28;10170;-81
2023/12/14 05:11:13;;;;;;;;;7.00;5.00;;;;;;;;5070300;28;10203;-79
2023/12/14 05:13:40;;;;;;;;;4.50;4.50;;;;;;;;5069436;28;10095;-80
2023/12/14 05:16:14;;;;;;;;;3.00;3.00;;;;;;;;5071140;28;10072;-80
2023/12/14 05:18:41;;;;;;;;;5.00;5.00;;;;;;;;5070194;28;10148;-80
2023/12/14 05:21:09;;;;;;;;;4.00;4.00;;;;;;;;5074674;28;10026;-80
2023/12/14 05:23:36;;;;;;;;;6.50;4.50;;;;;;;;5076170;28;10012;-80
2023/12/14 05:26:03;;;;;;;;;5.00;4.00;;;;;;;;5070402;28;9940;-81
2023/12/14 05:28:31;;;;;;;;;3.75;3.75;;;;;;;;5063921;28;9925;-81
2023/12/14 05:30:58;;;;;;;;;4.75;3.00;;;;;;;;5074886;28;9905;-81
2023/12/14 05:33:28;;;;;;;;;4.00;4.00;;;;;;;;5063368;28;10061;-80
2023/12/14 05:35:58;;;;;;;;;4.50;3.75;;;;;;;;5073400;28;10030;-81
2023/12/14 05:38:25;;;;;;;;;2.00;2.00;;;;;;;;5073355;28;10028;-81
2023/12/14 05:40:56;;;;;;;;;5.50;2.50;;;;;;;;5072146;28;9995;-80
2023/12/14 05:43:26;;;;;;;;;2.00;2.00;;;;;;;;5062228;28;10938;-81
2023/12/14 05:45:54;;;;;;;;;3.25;3.25;;;;;;;;5072767;28;10001;-81
2023/12/14 05:48:21;;;;;;;;;2.50;1.00;;;;;;;;5068473;28;9856;-81
2023/12/14 05:50:50;;;;;;;;;3.00;3.00;;;;;;;;5062347;28;9863;-80
2023/12/14 05:53:17;;;;;;;;;3.75;2.00;;;;;;;;5067992;28;10160;-81
2023/12/14 05:55:44;;;;;;;;;2.25;2.25;;;;;;;;5068010;28;9781;-79
2023/12/14 05:58:11;;;;;;;;;6.00;3.00;;;;;;;;5062063;28;9736;-81
2023/12/14 06:00:39;;;;;;;;;5.00;3.25;;;;;;;;5059128;28;9535;-80
2023/12/14 06:03:07;;;;;;;;;4.25;4.00;;;;;;;;5066383;28;10838;-82
2023/12/14 06:05:34;;;;;;;;;4.00;2.00;;;;;;;;5062991;28;10743;-80
2023/12/14 06:08:03;;;;;;;;;3.75;3.75;;;;;;;;5064564;28;9898;-80
2023/12/14 06:10:30;;;;;;;;;2.00;2.00;;;;;;;;5067589;28;10598;-80
2023/12/14 06:13:01;;;;;;;;;3.00;2.00;;;;;;;;5044018;28;10535;-81
2023/12/14 06:15:28;;;;;;;;;3.75;3.75;;;;;;;;5068033;28;9665;-85
2023/12/14 06:17:55;;;;;;;;;3.00;3.00;;;;;;;;5061351;28;9899;-80
2023/12/14 06:20:23;;;;;;;;;2.00;2.00;;;;;;;;5058357;28;9796;-78
2023/12/14 06:22:50;;;;;;;;;3.00;3.00;;;;;;;;5068034;28;9989;-75
2023/12/14 06:25:18;;;;;;;;;4.75;4.75;;;;;;;;5061839;28;10528;-79
2023/12/14 06:27:45;;;;;;;;;4.50;4.00;;;;;;;;5056576;28;10076;-82
2023/12/14 06:30:13;;;;;;;;;3.25;3.25;;;;;;;;5065279;28;9948;-77
2023/12/14 06:32:43;;;;;;;;;3.00;3.00;;;;;;;;5066733;28;9966;-80
2023/12/14 06:35:10;;;;;;;;;5.00;4.50;;;;;;;;5065500;28;9939;-78
2023/12/14 06:37:37;;;;;;;;;3.75;2.00;;;;;;;;5067962;28;9949;-80
2023/12/14 06:40:05;;;;;;;;;6.25;4.25;;;;;;;;5067791;28;9942;-80
2023/12/14 06:42:34;;;;;;;;;2.00;2.00;;;;;;;;5066585;28;9933;-79
2023/12/14 06:45:03;;;;;;;;;3.50;3.50;;;;;;;;5067431;28;10086;-76
2023/12/14 06:47:31;;;;;;;;;3.00;3.00;;;;;;;;5065174;28;10929;-77
2023/12/14 06:49:58;;;;;;;;;3.00;3.00;;;;;;;;5067759;28;10165;-80
2023/12/14 06:52:25;;;;;;;;;3.00;3.00;;;;;;;;5066170;28;10817;-79
2023/12/14 06:54:53;;;;;;;;;3.00;3.00;;;;;;;;5068278;28;10120;-79
2023/12/14 06:57:20;;;;;;;;;1.00;1.00;;;;;;;;5067244;28;10023;-80
2023/12/14 06:59:49;;;;;;;;;5.00;3.00;;;;;;;;5068811;28;9950;-80
2023/12/14 07:02:16;;;;;;;;;3.50;3.25;;;;;;;;5063351;28;10099;-76
2023/12/14 07:04:43;;;;;;;;;3.00;3.00;;;;;;;;5068947;28;10047;-80
2023/12/14 07:07:12;;;;;;;;;8.50;2.50;;;;;;;;5065578;28;10002;-77
2023/12/14 07:09:40;;;;;;;;;0.25;0.25;;;;;;;;5070941;28;10888;-77
2023/12/14 07:12:11;;;;;;;;;4.00;4.00;;;;;;;;5072189;28;10083;-79
2023/12/14 07:14:38;;;;;;;;;4.00;2.50;;;;;;;;5072564;28;10126;-74
2023/12/14 07:17:09;;;;;;;;;3.50;3.50;;;;;;;;5070530;28;9966;-76
2023/12/14 07:19:40;;;;;;;;;2.50;2.50;;;;;;;;5072766;28;10102;-78
2023/12/14 07:22:09;;;;;;;;;5.50;3.50;;;;;;;;5071802;28;10203;-78
2023/12/14 07:24:36;;;;;;;;;2.00;2.00;;;;;;;;5067104;28;10147;-79
2023/12/14 07:27:10;;;;;;;;;4.75;4.75;;;;;;;;5062166;28;10011;-79
2023/12/14 07:29:37;;;;;;;;;5.50;3.00;;;;;;;;5064417;28;10179;-78
2023/12/14 07:32:06;;;;;;;;;3.00;3.00;;;;;;;;5071338;28;10038;-77
2023/12/14 07:34:37;;;;;;;;;3.25;3.25;;;;;;;;5070560;28;10219;-77
2023/12/14 07:37:13;;;;;;;;;3.50;2.75;;;;;;;;5058834;28;10187;-74
2023/12/14 07:39:40;;;;;;;;;2.00;2.00;;;;;;;;5067531;28;10039;-76
2023/12/14 07:42:08;;;;;;;;;2.50;2.00;;;;;;;;5075262;28;10238;-74
2023/12/14 07:44:40;;;;;;;;;2.75;2.75;;;;;;;;5070100;28;10011;-80
2023/12/14 07:47:12;;;;;;;;;2.25;2.25;;;;;;;;5067732;28;10031;-75
2023/12/14 07:49:42;;;;;;;;;3.25;2.00;;;;;;;;5067306;28;10969;-74
2023/12/14 07:52:09;;;;;;;;;3.75;3.00;;;;;;;;5065508;28;9949;-78
2023/12/14 07:54:37;;;;;;;;;4.25;3.00;;;;;;;;5065611;28;10098;-78
2023/12/14 07:57:07;;;;;;;;;3.00;3.00;;;;;;;;5066734;28;10980;-80
2023/12/14 07:59:34;;;;;;;;;3.25;2.50;;;;;;;;5069888;28;10996;-77
2023/12/14 08:02:02;;;;;;;;;2.00;2.00;;;;;;;;5065213;28;10178;-80
2023/12/14 08:04:31;;;;;;;;;4.75;2.00;;;;;;;;5068512;28;10154;-80
2023/12/14 08:06:58;;;;;;;;;3.25;2.00;;;;;;;;5070811;28;10015;-79
2023/12/14 08:09:30;;;;;;;;;2.50;2.50;;;;;;;;5070333;28;10145;-78
2023/12/14 08:11:59;;;;;;;;;3.00;3.00;;;;;;;;5066037;28;10172;-77
2023/12/14 08:14:31;;;;;;;;;3.00;2.00;;;;;;;;5065040;28;10176;-75
2023/12/14 08:16:58;;;;;;;;;8.50;5.00;;;;;;;;5068038;28;10902;-76
2023/12/14 08:19:25;;;;;;;;;2.00;2.00;;;;;;;;5070125;28;10248;-78
2023/12/14 08:21:54;;;;;;;;;2.25;2.25;;;;;;;;5069881;28;10246;-78
2023/12/14 08:24:21;;;;;;;;;0.75;0.00;;;;;;;;5070079;28;10265;-76
2023/12/14 08:26:48;;;;;;;;;3.50;3.50;;;;;;;;5066768;28;11093;-78
2023/12/14 08:29:15;;;;;;;;;2.00;2.00;;;;;;;;5060333;28;10181;-78
2023/12/14 08:31:43;;;;;;;;;2.75;2.75;;;;;;;;5070010;28;10179;-79
2023/12/14 08:34:10;;;;;;;;;2.25;2.25;;;;;;;;5069956;28;10246;-76
2023/12/14 08:36:37;;;;;;;;;5.00;3.50;;;;;;;;5069886;28;10151;-77
2023/12/14 08:39:06;;;;;;;;;3.00;2.00;;;;;;;;5069506;28;10302;-75
2023/12/14 08:41:33;;;;;;;;;3.00;3.00;;;;;;;;5069428;28;10456;-80
2023/12/14 08:44:00;;;;;;;;;2.25;2.25;;;;;;;;5070522;28;10248;-74
2023/12/14 08:46:28;;;;;;;;;4.00;3.25;;;;;;;;5069701;28;10283;-76
2023/12/14 08:48:55;;;;;;;;;6.25;3.00;;;;;;;;5070368;28;10201;-75
2023/12/14 08:51:26;;;;;;;;;4.00;4.00;;;;;;;;5069959;28;10309;-78
2023/12/14 08:53:53;;;;;;;;;3.00;3.00;;;;;;;;5070987;28;10243;-78
2023/12/14 08:56:22;;;;;;;;;7.50;3.50;;;;;;;;5072355;28;10181;-80
2023/12/14 08:58:49;;;;;;;;;4.00;3.00;;;;;;;;5072887;28;10247;-74
2023/12/14 09:01:21;;;;;;;;;4.25;3.25;;;;;;;;5064602;28;10045;-77
2023/12/14 09:03:49;;;;;;;;;3.50;3.50;;;;;;;;5072959;28;10328;-79
2023/12/14 09:06:17;;;;;;;;;2.50;2.00;;;;;;;;5064014;28;10168;-79
2023/12/14 09:08:44;;;;;;;;;2.25;2.25;;;;;;;;5068939;28;10440;-76
2023/12/14 09:11:12;;;;;;;;;1.00;1.00;;;;;;;;5071065;28;10413;-80
2023/12/14 09:13:42;;;;;;;;;1.00;1.00;;;;;;;;5069913;28;10241;-73
2023/12/14 09:16:12;;;;;;;;;1.00;1.00;;;;;;;;5070280;28;10246;-72
2023/12/14 09:18:39;;;;;;;;;4.00;2.50;;;;;;;;5071468;28;10304;-72
2023/12/14 09:21:06;;;;;;;;;4.25;2.25;;;;;;;;5071039;28;10213;-78
2023/12/14 09:23:34;;;;;;;;;1.00;1.00;;;;;;;;5068581;28;10353;-72
2023/12/14 09:26:01;;;;;;;;;3.00;3.00;;;;;;;;5069017;28;10312;-78
2023/12/14 09:28:30;;;;;;;;;4.00;2.75;;;;;;;;5068204;28;10409;-76
2023/12/14 09:31:01;;;;;;;;;2.00;2.00;;;;;;;;5067493;28;10172;-77
2023/12/14 09:33:28;;;;;;;;;2.25;2.25;;;;;;;;5066093;28;10174;-80
2023/12/14 09:35:55;;;;;;;;;2.00;2.00;;;;;;;;5067957;28;10234;-81
2023/12/14 09:38:23;;;;;;;;;2.00;2.00;;;;;;;;5067562;28;10227;-74
2023/12/14 09:40:51;;;;;;;;;2.00;2.00;;;;;;;;5068848;28;10227;-72
2023/12/14 09:43:19;;;;;;;;;4.00;2.25;;;;;;;;5067427;28;10073;-73
2023/12/14 09:45:47;;;;;;;;;2.25;2.25;;;;;;;;5068382;28;10204;-72
2023/12/14 09:48:17;;;;;;;;;1.75;1.75;;;;;;;;5067667;28;11072;-80
2023/12/14 09:50:45;;;;;;;;;1.00;1.00;;;;;;;;5068465;28;10035;-78
2023/12/14 09:53:12;;;;;;;;;0.00;0.00;;;;;;;;5056200;28;10022;-76
2023/12/14 09:55:39;;;;;;;;;1.00;1.00;;;;;;;;5068175;28;10390;-72
2023/12/14 09:58:09;;;;;;;;;2.00;2.00;;;;;;;;5068307;28;10184;-77
2023/12/14 10:00:40;;;;;;;;;1.00;1.00;;;;;;;;5063739;28;10120;-76
2023/12/14 10:03:26;;;;;;;;;3.00;1.50;;;;;;;;5067169;28;10841;-75
2023/12/14 10:05:53;;;;;;;;;1.00;1.00;;;;;;;;5069447;28;10891;-79
2023/12/14 10:08:21;;;;;;;;;1.00;1.00;;;;;;;;5068364;28;10130;-78
2023/12/14 10:10:51;;;;;;;;;1.50;1.50;;;;;;;;5067918;28;10083;-77
2023/12/14 10:13:18;;;;;;;;;2.75;2.75;;;;;;;;5068487;28;10076;-78
2023/12/14 10:15:46;;;;;;;;;2.00;2.00;;;;;;;;5067496;28;10145;-77
2023/12/14 10:18:14;;;;;;;;;5.25;4.00;;;;;;;;5072935;28;9946;-77
2023/12/14 10:20:45;;;;;;;;;3.00;3.00;;;;;;;;5074835;28;10015;-76
2023/12/14 10:23:12;;;;;;;;;2.50;2.50;;;;;;;;5054035;28;10243;-73
2023/12/14 10:25:39;;;;;;;;;2.00;2.00;;;;;;;;5066948;28;10039;-74
2023/12/14 10:28:09;;;;;;;;;2.00;2.00;;;;;;;;5055910;28;9950;-77
2023/12/14 10:30:36;;;;;;;;;2.00;2.00;;;;;;;;5067656;28;9826;-77
2023/12/14 10:33:04;;;;;;;;;2.25;1.00;;;;;;;;5067826;28;9963;-78
2023/12/14 10:35:31;;;;;;;;;4.00;2.00;;;;;;;;5067857;28;9874;-79
2023/12/14 10:38:04;;;;;;;;;2.00;2.00;;;;;;;;5068181;28;9922;-80
2023/12/14 10:40:32;;;;;;;;;2.25;2.25;;;;;;;;5069190;28;9919;-80
2023/12/14 10:43:01;;;;;;;;;3.00;3.00;;;;;;;;5053498;28;10114;-78
2023/12/14 10:45:33;;;;;;;;;2.00;2.00;;;;;;;;5072147;28;10045;-77
2023/12/14 10:48:01;;;;;;;;;1.75;1.75;;;;;;;;5070852;28;10062;-76
2023/12/14 10:50:30;;;;;;;;;2.00;2.00;;;;;;;;5056982;28;9954;-80
2023/12/14 10:53:01;;;;;;;;;1.25;1.25;;;;;;;;5061394;28;9835;-79
2023/12/14 10:55:30;;;;;;;;;2.00;2.00;;;;;;;;5066502;28;9841;-80
2023/12/14 10:57:58;;;;;;;;;2.50;2.50;;;;;;;;5072464;28;10707;-76
2023/12/14 11:00:25;;;;;;;;;4.50;3.00;;;;;;;;5068561;28;9877;-75
2023/12/14 11:02:53;;;;;;;;;2.75;1.00;;;;;;;;5062085;28;9835;-74
2023/12/14 11:05:29;;;;;;;;;2.00;2.00;;;;;;;;5050601;28;9847;-76
2023/12/14 11:08:00;;;;;;;;;2.50;2.50;;;;;;;;5059957;28;10073;-76
2023/12/14 11:10:38;;;;;;;;;2.00;2.00;;;;;;;;5069947;28;9941;-73
2023/12/14 11:13:10;;;;;;;;;3.25;3.00;;;;;;;;5070164;28;10030;-76
2023/12/14 11:15:40;;;;;;;;;3.00;3.00;;;;;;;;5050315;28;9966;-79
2023/12/14 11:18:24;;;;;;;;;2.50;2.50;;;;;;;;5061492;28;9874;-73
2023/12/14 11:21:00;;;;;;;;;3.00;2.00;;;;;;;;5056873;28;10668;-82
2023/12/14 11:23:35;;;;;;;;;2.00;2.00;;;;;;;;5066371;28;10023;-77
2023/12/14 11:26:05;;;;;;;;;1.00;1.00;;;;;;;;5067660;28;9908;-74
2023/12/14 11:28:34;;;;;;;;;3.00;3.00;;;;;;;;5053044;28;9991;-74
2023/12/14 11:31:05;;;;;;;;;1.25;1.25;;;;;;;;5067228;28;9955;-74
2023/12/14 11:33:34;;;;;;;;;2.00;0.00;;;;;;;;5069659;28;9995;-74
2023/12/14 11:36:03;;;;;;;;;2.50;2.50;;;;;;;;5071124;28;9983;-73
2023/12/14 11:38:34;;;;;;;;;2.00;2.00;;;;;;;;5069994;28;10046;-77
2023/12/14 11:41:03;;;;;;;;;2.00;2.00;;;;;;;;5070618;28;9940;-76
2023/12/14 11:43:30;;;;;;;;;2.50;2.25;;;;;;;;5069538;28;10007;-81
2023/12/14 11:45:58;;;;;;;;;3.00;1.00;;;;;;;;5070202;28;10862;-74
2023/12/14 11:48:25;;;;;;;;;1.00;1.00;;;;;;;;5070154;28;10144;-77
2023/12/14 11:50:53;;;;;;;;;3.00;3.00;;;;;;;;5070241;28;9847;-78
2023/12/14 11:53:21;;;;;;;;;1.00;1.00;;;;;;;;5070916;28;9984;-79
2023/12/14 11:55:48;;;;;;;;;5.00;2.25;;;;;;;;5068707;28;9921;-79
2023/12/14 11:58:17;;;;;;;;;6.00;3.00;;;;;;;;5070202;28;9992;-74
2023/12/14 12:00:46;;;;;;;;;1.50;1.50;;;;;;;;5055348;28;9782;-76
2023/12/14 12:03:14;;;;;;;;;1.00;1.00;;;;;;;;5058680;28;9703;-77
2023/12/14 12:05:44;;;;;;;;;3.00;1.75;;;;;;;;5070516;28;9857;-81
2023/12/14 12:08:12;;;;;;;;;1.25;1.25;;;;;;;;5070351;28;9927;-75
2023/12/14 12:10:40;;;;;;;;;2.25;2.25;;;;;;;;5065253;28;10624;-76
2023/12/14 12:13:14;;;;;;;;;4.00;2.25;;;;;;;;5068353;28;9897;-75
2023/12/14 12:15:42;;;;;;;;;1.50;1.50;;;;;;;;5070381;28;9843;-79
2023/12/14 12:18:11;;;;;;;;;1.25;1.25;;;;;;;;5070241;28;9804;-76
2023/12/14 12:20:39;;;;;;;;;1.75;1.75;;;;;;;;5068461;28;9839;-74
2023/12/14 12:23:06;;;;;;;;;1.00;1.00;;;;;;;;5069428;28;9837;-78
2023/12/14 12:25:34;;;;;;;;;0.75;0.75;;;;;;;;5070273;28;9634;-79
2023/12/14 12:28:03;;;;;;;;;3.00;1.00;;;;;;;;5058056;28;9635;-80
2023/12/14 12:30:30;;;;;;;;;2.25;1.25;;;;;;;;5070753;28;9657;-77
2023/12/14 12:32:59;;;;;;;;;2.25;2.25;;;;;;;;5071735;28;9852;-79
2023/12/14 12:35:26;;;;;;;;;1.75;1.50;;;;;;;;5062413;28;9896;-79
2023/12/14 12:37:54;;;;;;;;;1.50;1.50;;;;;;;;5073700;28;9877;-77
2023/12/14 12:40:22;;;;;;;;;1.00;1.00;;;;;;;;5063120;28;9709;-79
2023/12/14 12:42:49;;;;;;;;;1.50;1.50;;;;;;;;5070868;28;9685;-79
2023/12/14 12:45:17;;;;;;;;;3.00;1.00;;;;;;;;5072746;28;9614;-79
2023/12/14 12:47:45;;;;;;;;;1.50;1.00;;;;;;;;5071679;28;9597;-79
2023/12/14 12:50:14;;;;;;;;;1.00;1.00;;;;;;;;5071292;28;9912;-79
2023/12/14 12:52:42;;;;;;;;;1.00;1.00;;;;;;;;5072120;28;9839;-74
2023/12/14 12:55:10;;;;;;;;;0.25;0.25;;;;;;;;5078980;28;9649;-75
2023/12/14 12:57:37;;;;;;;;;1.00;1.00;;;;;;;;5077385;28;9698;-79
2023/12/14 13:00:07;;;;;;;;;1.00;1.00;;;;;;;;5071981;28;9757;-80
2023/12/14 13:02:38;;;;;;;;;1.00;1.00;;;;;;;;5068253;28;9574;-77
2023/12/14 13:05:07;;;;;;;;;0.75;0.75;;;;;;;;5064851;28;9649;-76
2023/12/14 13:07:36;;;;;;;;;1.25;0.75;;;;;;;;5068958;28;9765;-76
2023/12/14 13:10:03;;;;;;;;;3.00;1.00;;;;;;;;5067432;28;9626;-80
2023/12/14 13:12:30;;;;;;;;;1.00;1.00;;;;;;;;5066578;28;9761;-77
2023/12/14 13:14:57;;;;;;;;;2.00;2.00;;;;;;;;5064778;28;9792;-75
2023/12/14 13:17:25;;;;;;;;;1.00;1.00;;;;;;;;5068280;28;9608;-77
2023/12/14 13:19:52;;;;;;;;;3.00;1.00;;;;;;;;5068761;28;10600;-79
2023/12/14 13:22:20;;;;;;;;;1.00;1.00;;;;;;;;5066293;28;9636;-78
2023/12/14 13:24:49;;;;;;;;;1.00;1.00;;;;;;;;5069408;28;9532;-76
2023/12/14 13:27:16;;;;;;;;;3.25;2.00;;;;;;;;5069639;28;9553;-76
2023/12/14 13:29:45;;;;;;;;;1.75;1.75;;;;;;;;5069353;28;9722;-72
2023/12/14 13:32:12;;;;;;;;;2.00;2.00;;;;;;;;5068631;28;9406;-74
2023/12/14 13:34:38;;;;;;;;;1.00;1.00;;;;;;;;5067099;28;10328;-72
2023/12/14 13:37:05;;;;;;;;;1.50;1.50;;;;;;;;5067760;28;9543;-71
2023/12/14 13:39:34;;;;;;;;;1.75;1.75;;;;;;;;5066672;28;9550;-78
2023/12/14 13:42:03;;;;;;;;;0.00;0.00;;;;;;;;5067768;28;9445;-79
2023/12/14 13:44:31;;;;;;;;;0.50;0.50;;;;;;;;5068446;28;9555;-78
2023/12/14 13:46:59;;;;;;;;;1.00;1.00;;;;;;;;5067658;28;9491;-80
2023/12/14 13:49:26;;;;;;;;;3.00;1.50;;;;;;;;5067655;28;9630;-78
2023/12/14 13:51:54;;;;;;;;;1.00;1.00;;;;;;;;5068562;28;9564;-78
2023/12/14 13:54:21;;;;;;;;;1.00;1.00;;;;;;;;5067890;28;9548;-79
2023/12/14 13:56:50;;;;;;;;;0.00;0.00;;;;;;;;5067522;28;9460;-79
2023/12/14 13:59:19;;;;;;;;;2.75;1.75;;;;;;;;5068117;28;9237;-79
2023/12/14 14:01:50;;;;;;;;;2.33;1.00;;;;;;;;5067587;28;10289;-79
2023/12/14 14:04:17;;;;;;;;;1.00;1.00;;;;;;;;5067693;28;9406;-79
2023/12/14 14:06:44;;;;;;;;;1.25;1.25;;;;;;;;5068442;28;9483;-79
2023/12/14 14:09:14;;;;;;;;;1.00;1.00;;;;;;;;5067584;28;9395;-80
2023/12/14 14:11:45;;;;;;;;;1.00;1.00;;;;;;;;5068580;28;9476;-75
2023/12/14 14:14:12;;;;;;;;;2.00;2.00;;;;;;;;5067936;28;9485;-80
2023/12/14 14:16:41;;;;;;;;;3.25;2.25;;;;;;;;5066297;28;9313;-75
2023/12/14 14:19:11;;;;;;;;;2.00;2.00;;;;;;;;5058482;28;9400;-78
2023/12/14 14:21:38;;;;;;;;;2.33;1.00;;;;;;;;5069894;28;9348;-78
2023/12/14 14:24:06;;;;;;;;;3.00;1.33;;;;;;;;5072672;28;9321;-77
2023/12/14 14:26:33;;;;;;;;;3.00;1.67;;;;;;;;5069109;28;9326;-79
2023/12/14 14:29:01;;;;;;;;;1.67;1.67;;;;;;;;5059702;28;9483;-76
2023/12/14 14:31:32;;;;;;;;;1.00;1.00;;;;;;;;5068845;28;9204;-78
2023/12/14 14:34:00;;;;;;;;;3.33;1.00;;;;;;;;5071135;28;9364;-76
2023/12/14 14:36:28;;;;;;;;;1.67;1.67;;;;;;;;5069406;28;9240;-80
2023/12/14 14:38:56;;;;;;;;;1.00;1.00;;;;;;;;5068463;28;9355;-79
2023/12/14 14:41:24;;;;;;;;;3.00;1.00;;;;;;;;5067813;28;10092;-80
2023/12/14 14:43:51;;;;;;;;;4.00;2.25;;;;;;;;5069689;28;9477;-80
2023/12/14 14:46:18;;;;;;;;;2.50;2.50;;;;;;;;5071277;28;9472;-81
2023/12/14 14:48:45;;;;;;;;;2.00;2.00;;;;;;;;5069979;28;10280;-73
2023/12/14 14:51:14;;;;;;;;;3.00;1.00;;;;;;;;5067418;28;9485;-75
2023/12/14 14:53:42;;;;;;;;;2.00;2.00;;;;;;;;5067426;28;9479;-79